sensor_id;sensor_type;location;lat;lon;timestamp;temperature;humidity
69731;SHT31;56996;48.138;11.538;2022-11-20T00:01:10;7.07;74.44
69731;SHT31;56996;48.138;11.538;2022-11-20T00:03:40;7.08;74.38
69731;SHT31;56996;48.138;11.538;2022-11-20T00:06:08;7.11;74.34
69731;SHT31;56996;48.138;11.538;2022-11-20T00:08:38;7.13;74.23
69731;SHT31;56996;48.138;11.538;2022-11-20T00:11:05;7.11;74.20
69731;SHT31;56996;48.138;11.538;2022-11-20T00:13:41;7.11;74.30
69731;SHT31;56996;48.138;11.538;2022-11-20T00:16:10;7.11;74.46
69731;SHT31;56996;48.138;11.538;2022-11-20T00:18:38;7.11;74.29
69731;SHT31;56996;48.138;11.538;2022-11-20T00:21:15;7.14;74.24
69731;SHT31;56996;48.138;11.538;2022-11-20T00:23:50;7.18;74.18
69731;SHT31;56996;48.138;11.538;2022-11-20T00:26:22;7.19;74.21
69731;SHT31;56996;48.138;11.538;2022-11-20T00:28:52;7.18;74.28
69731;SHT31;56996;48.138;11.538;2022-11-20T00:31:25;7.19;74.29
69731;SHT31;56996;48.138;11.538;2022-11-20T00:33:53;7.20;74.44
69731;SHT31;56996;48.138;11.538;2022-11-20T00:36:21;7.18;74.62
69731;SHT31;56996;48.138;11.538;2022-11-20T00:38:55;7.17;74.81
69731;SHT31;56996;48.138;11.538;2022-11-20T00:41:23;7.19;74.46
69731;SHT31;56996;48.138;11.538;2022-11-20T00:43:52;7.17;74.40
69731;SHT31;56996;48.138;11.538;2022-11-20T00:46:21;7.16;74.73
69731;SHT31;56996;48.138;11.538;2022-11-20T00:48:53;7.16;74.68
69731;SHT31;56996;48.138;11.538;2022-11-20T00:51:20;7.18;74.77
69731;SHT31;56996;48.138;11.538;2022-11-20T00:53:51;7.20;74.29
69731;SHT31;56996;48.138;11.538;2022-11-20T00:56:18;7.20;74.11
69731;SHT31;56996;48.138;11.538;2022-11-20T00:58:46;7.18;74.12
69731;SHT31;56996;48.138;11.538;2022-11-20T01:01:21;7.16;74.08
69731;SHT31;56996;48.138;11.538;2022-11-20T01:03:52;7.16;74.05
69731;SHT31;56996;48.138;11.538;2022-11-20T01:08:51;7.16;73.96
69731;SHT31;56996;48.138;11.538;2022-11-20T01:11:25;7.16;73.98
69731;SHT31;56996;48.138;11.538;2022-11-20T01:13:58;7.12;73.92
69731;SHT31;56996;48.138;11.538;2022-11-20T01:16:29;7.11;73.97
69731;SHT31;56996;48.138;11.538;2022-11-20T01:19:06;7.12;73.97
69731;SHT31;56996;48.138;11.538;2022-11-20T01:21:43;7.14;73.85
69731;SHT31;56996;48.138;11.538;2022-11-20T01:24:12;7.13;73.90
69731;SHT31;56996;48.138;11.538;2022-11-20T01:26:42;7.11;73.91
69731;SHT31;56996;48.138;11.538;2022-11-20T01:29:15;7.11;73.98
69731;SHT31;56996;48.138;11.538;2022-11-20T01:31:49;7.13;73.93
69731;SHT31;56996;48.138;11.538;2022-11-20T01:34:18;7.14;73.80
69731;SHT31;56996;48.138;11.538;2022-11-20T01:36:47;7.16;73.92
69731;SHT31;56996;48.138;11.538;2022-11-20T01:39:18;7.15;74.11
69731;SHT31;56996;48.138;11.538;2022-11-20T01:41:49;7.16;73.94
69731;SHT31;56996;48.138;11.538;2022-11-20T01:44:49;7.16;73.76
69731;SHT31;56996;48.138;11.538;2022-11-20T01:50:45;7.15;73.81
69731;SHT31;56996;48.138;11.538;2022-11-20T01:52:53;7.13;73.75
69731;SHT31;56996;48.138;11.538;2022-11-20T01:55:26;7.13;73.70
69731;SHT31;56996;48.138;11.538;2022-11-20T01:57:59;7.11;73.71
69731;SHT31;56996;48.138;11.538;2022-11-20T02:00:28;7.09;73.74
69731;SHT31;56996;48.138;11.538;2022-11-20T02:03:03;7.09;73.74
69731;SHT31;56996;48.138;11.538;2022-11-20T02:05:46;7.09;73.73
69731;SHT31;56996;48.138;11.538;2022-11-20T02:08:20;7.10;73.71
69731;SHT31;56996;48.138;11.538;2022-11-20T02:10:48;7.10;73.59
69731;SHT31;56996;48.138;11.538;2022-11-20T02:13:14;7.06;73.57
69731;SHT31;56996;48.138;11.538;2022-11-20T02:16:01;7.03;73.53
69731;SHT31;56996;48.138;11.538;2022-11-20T02:18:29;6.99;73.64
69731;SHT31;56996;48.138;11.538;2022-11-20T02:21:07;6.99;73.72
69731;SHT31;56996;48.138;11.538;2022-11-20T02:23:40;6.97;73.70
69731;SHT31;56996;48.138;11.538;2022-11-20T02:26:23;6.97;73.66
69731;SHT31;56996;48.138;11.538;2022-11-20T02:28:51;6.96;73.73
69731;SHT31;56996;48.138;11.538;2022-11-20T02:31:18;6.96;73.91
69731;SHT31;56996;48.138;11.538;2022-11-20T02:33:45;6.99;73.73
69731;SHT31;56996;48.138;11.538;2022-11-20T02:36:13;6.99;73.63
69731;SHT31;56996;48.138;11.538;2022-11-20T02:38:41;6.97;73.70
69731;SHT31;56996;48.138;11.538;2022-11-20T02:41:09;6.96;73.70
69731;SHT31;56996;48.138;11.538;2022-11-20T02:43:36;6.97;73.62
69731;SHT31;56996;48.138;11.538;2022-11-20T02:46:02;6.98;73.60
69731;SHT31;56996;48.138;11.538;2022-11-20T02:48:29;6.99;73.67
69731;SHT31;56996;48.138;11.538;2022-11-20T02:50:59;6.98;73.50
69731;SHT31;56996;48.138;11.538;2022-11-20T02:53:26;6.97;73.46
69731;SHT31;56996;48.138;11.538;2022-11-20T02:55:53;6.96;73.30
69731;SHT31;56996;48.138;11.538;2022-11-20T02:58:20;6.93;73.26
69731;SHT31;56996;48.138;11.538;2022-11-20T03:00:46;6.91;73.22
69731;SHT31;56996;48.138;11.538;2022-11-20T03:03:13;6.93;73.20
69731;SHT31;56996;48.138;11.538;2022-11-20T03:05:39;6.97;73.09
69731;SHT31;56996;48.138;11.538;2022-11-20T03:08:06;6.98;73.03
69731;SHT31;56996;48.138;11.538;2022-11-20T03:10:33;7.01;73.02
69731;SHT31;56996;48.138;11.538;2022-11-20T03:13:00;6.99;73.01
69731;SHT31;56996;48.138;11.538;2022-11-20T03:15:29;6.97;72.73
69731;SHT31;56996;48.138;11.538;2022-11-20T03:17:55;6.96;72.68
69731;SHT31;56996;48.138;11.538;2022-11-20T03:20:22;6.95;72.73
69731;SHT31;56996;48.138;11.538;2022-11-20T03:22:50;6.92;72.82
69731;SHT31;56996;48.138;11.538;2022-11-20T03:25:17;6.92;72.72
69731;SHT31;56996;48.138;11.538;2022-11-20T03:27:43;6.94;72.71
69731;SHT31;56996;48.138;11.538;2022-11-20T03:30:10;6.96;72.62
69731;SHT31;56996;48.138;11.538;2022-11-20T03:32:37;6.96;72.48
69731;SHT31;56996;48.138;11.538;2022-11-20T03:35:04;6.97;72.42
69731;SHT31;56996;48.138;11.538;2022-11-20T03:37:31;6.95;72.21
69731;SHT31;56996;48.138;11.538;2022-11-20T03:39:58;6.94;72.15
69731;SHT31;56996;48.138;11.538;2022-11-20T03:42:25;6.93;72.20
69731;SHT31;56996;48.138;11.538;2022-11-20T03:45:10;6.93;72.26
69731;SHT31;56996;48.138;11.538;2022-11-20T03:47:46;6.95;72.26
69731;SHT31;56996;48.138;11.538;2022-11-20T03:50:13;6.96;72.10
69731;SHT31;56996;48.138;11.538;2022-11-20T03:52:41;6.95;72.13
69731;SHT31;56996;48.138;11.538;2022-11-20T03:55:08;6.93;72.27
69731;SHT31;56996;48.138;11.538;2022-11-20T03:57:35;6.94;72.21
69731;SHT31;56996;48.138;11.538;2022-11-20T04:00:03;6.95;72.19
69731;SHT31;56996;48.138;11.538;2022-11-20T04:02:31;6.95;72.20
69731;SHT31;56996;48.138;11.538;2022-11-20T04:04:58;6.93;72.11
69731;SHT31;56996;48.138;11.538;2022-11-20T04:07:24;6.91;71.94
69731;SHT31;56996;48.138;11.538;2022-11-20T04:09:51;6.89;71.96
69731;SHT31;56996;48.138;11.538;2022-11-20T04:12:18;6.88;72.06
69731;SHT31;56996;48.138;11.538;2022-11-20T04:14:44;6.89;72.04
69731;SHT31;56996;48.138;11.538;2022-11-20T04:17:11;6.89;71.90
69731;SHT31;56996;48.138;11.538;2022-11-20T04:19:38;6.88;71.89
69731;SHT31;56996;48.138;11.538;2022-11-20T04:22:04;6.87;71.77
69731;SHT31;56996;48.138;11.538;2022-11-20T04:24:31;6.87;71.79
69731;SHT31;56996;48.138;11.538;2022-11-20T04:26:58;6.89;71.75
69731;SHT31;56996;48.138;11.538;2022-11-20T04:29:24;6.91;71.63
69731;SHT31;56996;48.138;11.538;2022-11-20T04:31:51;6.93;71.47
69731;SHT31;56996;48.138;11.538;2022-11-20T04:34:17;6.91;71.44
69731;SHT31;56996;48.138;11.538;2022-11-20T04:36:44;6.91;71.52
69731;SHT31;56996;48.138;11.538;2022-11-20T04:39:11;6.91;71.53
69731;SHT31;56996;48.138;11.538;2022-11-20T04:41:41;6.92;71.52
69731;SHT31;56996;48.138;11.538;2022-11-20T04:44:09;6.91;71.57
69731;SHT31;56996;48.138;11.538;2022-11-20T04:46:40;6.93;71.61
69731;SHT31;56996;48.138;11.538;2022-11-20T04:49:10;6.91;71.46
69731;SHT31;56996;48.138;11.538;2022-11-20T04:51:38;6.89;71.60
69731;SHT31;56996;48.138;11.538;2022-11-20T04:54:04;6.84;71.62
69731;SHT31;56996;48.138;11.538;2022-11-20T04:56:31;6.84;71.73
69731;SHT31;56996;48.138;11.538;2022-11-20T04:59:01;6.82;71.78
69731;SHT31;56996;48.138;11.538;2022-11-20T05:01:29;6.80;71.82
69731;SHT31;56996;48.138;11.538;2022-11-20T05:03:56;6.78;72.03
69731;SHT31;56996;48.138;11.538;2022-11-20T05:06:23;6.80;72.03
69731;SHT31;56996;48.138;11.538;2022-11-20T05:08:49;6.83;72.08
69731;SHT31;56996;48.138;11.538;2022-11-20T05:11:17;6.84;72.00
69731;SHT31;56996;48.138;11.538;2022-11-20T05:13:47;6.83;71.94
69731;SHT31;56996;48.138;11.538;2022-11-20T05:16:16;6.81;71.97
69731;SHT31;56996;48.138;11.538;2022-11-20T05:18:46;6.80;72.02
69731;SHT31;56996;48.138;11.538;2022-11-20T05:21:13;6.79;72.03
69731;SHT31;56996;48.138;11.538;2022-11-20T05:23:41;6.80;72.06
69731;SHT31;56996;48.138;11.538;2022-11-20T05:26:13;6.80;72.06
69731;SHT31;56996;48.138;11.538;2022-11-20T05:28:42;6.82;72.08
69731;SHT31;56996;48.138;11.538;2022-11-20T05:31:10;6.81;72.07
69731;SHT31;56996;48.138;11.538;2022-11-20T05:33:50;6.81;72.05
69731;SHT31;56996;48.138;11.538;2022-11-20T05:36:17;6.79;71.96
69731;SHT31;56996;48.138;11.538;2022-11-20T05:38:44;6.78;71.98
69731;SHT31;56996;48.138;11.538;2022-11-20T05:41:16;6.79;72.01
69731;SHT31;56996;48.138;11.538;2022-11-20T05:43:46;6.80;72.02
69731;SHT31;56996;48.138;11.538;2022-11-20T05:46:15;6.78;72.01
69731;SHT31;56996;48.138;11.538;2022-11-20T05:48:53;6.77;72.14
69731;SHT31;56996;48.138;11.538;2022-11-20T05:51:20;6.77;72.12
69731;SHT31;56996;48.138;11.538;2022-11-20T05:53:47;6.77;72.06
69731;SHT31;56996;48.138;11.538;2022-11-20T05:56:18;6.74;72.03
69731;SHT31;56996;48.138;11.538;2022-11-20T05:58:46;6.71;71.94
69731;SHT31;56996;48.138;11.538;2022-11-20T06:01:18;6.67;71.93
69731;SHT31;56996;48.138;11.538;2022-11-20T06:03:49;6.67;71.71
69731;SHT31;56996;48.138;11.538;2022-11-20T06:06:18;6.65;71.65
69731;SHT31;56996;48.138;11.538;2022-11-20T06:08:46;6.62;71.56
69731;SHT31;56996;48.138;11.538;2022-11-20T06:11:13;6.59;71.50
69731;SHT31;56996;48.138;11.538;2022-11-20T06:13:41;6.56;71.51
69731;SHT31;56996;48.138;11.538;2022-11-20T06:16:08;6.52;71.66
69731;SHT31;56996;48.138;11.538;2022-11-20T06:18:36;6.50;71.63
69731;SHT31;56996;48.138;11.538;2022-11-20T06:21:05;6.50;71.49
69731;SHT31;56996;48.138;11.538;2022-11-20T06:23:35;6.45;71.44
69731;SHT31;56996;48.138;11.538;2022-11-20T06:26:03;6.42;71.39
69731;SHT31;56996;48.138;11.538;2022-11-20T06:28:33;6.38;71.34
69731;SHT31;56996;48.138;11.538;2022-11-20T06:31:00;6.33;71.23
69731;SHT31;56996;48.138;11.538;2022-11-20T06:33:27;6.31;71.23
69731;SHT31;56996;48.138;11.538;2022-11-20T06:35:58;6.26;71.01
69731;SHT31;56996;48.138;11.538;2022-11-20T06:38:34;6.25;71.07
69731;SHT31;56996;48.138;11.538;2022-11-20T06:41:01;6.24;70.95
69731;SHT31;56996;48.138;11.538;2022-11-20T06:43:28;6.21;70.91
69731;SHT31;56996;48.138;11.538;2022-11-20T06:45:56;6.21;70.75
69731;SHT31;56996;48.138;11.538;2022-11-20T06:48:27;6.21;70.64
69731;SHT31;56996;48.138;11.538;2022-11-20T06:50:55;6.23;70.50
69731;SHT31;56996;48.138;11.538;2022-11-20T06:53:23;6.26;70.40
69731;SHT31;56996;48.138;11.538;2022-11-20T06:55:50;6.28;70.14
69731;SHT31;56996;48.138;11.538;2022-11-20T06:58:18;6.29;70.09
69731;SHT31;56996;48.138;11.538;2022-11-20T07:00:45;6.32;69.99
69731;SHT31;56996;48.138;11.538;2022-11-20T07:03:12;6.37;70.02
69731;SHT31;56996;48.138;11.538;2022-11-20T07:05:39;6.43;69.87
69731;SHT31;56996;48.138;11.538;2022-11-20T07:08:06;6.50;69.65
69731;SHT31;56996;48.138;11.538;2022-11-20T07:10:33;6.57;69.60
69731;SHT31;56996;48.138;11.538;2022-11-20T07:13:00;6.62;69.47
69731;SHT31;56996;48.138;11.538;2022-11-20T07:15:26;6.65;69.27
69731;SHT31;56996;48.138;11.538;2022-11-20T07:17:53;6.68;69.20
69731;SHT31;56996;48.138;11.538;2022-11-20T07:20:20;6.70;69.31
69731;SHT31;56996;48.138;11.538;2022-11-20T07:22:46;6.75;69.26
69731;SHT31;56996;48.138;11.538;2022-11-20T07:25:26;6.74;69.12
69731;SHT31;56996;48.138;11.538;2022-11-20T07:27:57;6.74;69.15
69731;SHT31;56996;48.138;11.538;2022-11-20T07:30:26;6.76;69.17
69731;SHT31;56996;48.138;11.538;2022-11-20T07:32:54;6.80;69.43
69731;SHT31;56996;48.138;11.538;2022-11-20T07:35:23;6.82;69.29
69731;SHT31;56996;48.138;11.538;2022-11-20T07:37:51;6.81;69.34
69731;SHT31;56996;48.138;11.538;2022-11-20T07:40:17;6.84;69.42
69731;SHT31;56996;48.138;11.538;2022-11-20T07:42:51;6.87;69.44
69731;SHT31;56996;48.138;11.538;2022-11-20T07:45:21;6.90;69.31
69731;SHT31;56996;48.138;11.538;2022-11-20T07:47:49;6.92;69.52
69731;SHT31;56996;48.138;11.538;2022-11-20T07:50:16;6.98;69.54
69731;SHT31;56996;48.138;11.538;2022-11-20T07:52:43;7.04;69.38
69731;SHT31;56996;48.138;11.538;2022-11-20T07:55:10;7.08;69.32
69731;SHT31;56996;48.138;11.538;2022-11-20T07:57:37;7.10;69.16
69731;SHT31;56996;48.138;11.538;2022-11-20T08:00:05;7.13;69.37
69731;SHT31;56996;48.138;11.538;2022-11-20T08:02:39;7.16;69.08
69731;SHT31;56996;48.138;11.538;2022-11-20T08:05:10;7.14;69.14
69731;SHT31;56996;48.138;11.538;2022-11-20T08:07:38;7.19;69.10
69731;SHT31;56996;48.138;11.538;2022-11-20T08:10:06;7.22;68.77
69731;SHT31;56996;48.138;11.538;2022-11-20T08:12:35;7.23;68.70
69731;SHT31;56996;48.138;11.538;2022-11-20T08:15:20;7.24;68.38
69731;SHT31;56996;48.138;11.538;2022-11-20T08:17:48;7.22;68.44
69731;SHT31;56996;48.138;11.538;2022-11-20T08:20:34;7.25;68.36
69731;SHT31;56996;48.138;11.538;2022-11-20T08:23:02;7.26;68.25
69731;SHT31;56996;48.138;11.538;2022-11-20T08:25:32;7.24;68.30
69731;SHT31;56996;48.138;11.538;2022-11-20T08:28:01;7.26;68.35
69731;SHT31;56996;48.138;11.538;2022-11-20T08:30:45;7.29;68.09
69731;SHT31;56996;48.138;11.538;2022-11-20T08:33:12;7.28;67.98
69731;SHT31;56996;48.138;11.538;2022-11-20T08:35:38;7.31;67.88
69731;SHT31;56996;48.138;11.538;2022-11-20T08:38:08;7.34;67.63
69731;SHT31;56996;48.138;11.538;2022-11-20T08:40:35;7.38;67.42
69731;SHT31;56996;48.138;11.538;2022-11-20T08:43:01;7.37;67.34
69731;SHT31;56996;48.138;11.538;2022-11-20T08:45:28;7.42;67.29
69731;SHT31;56996;48.138;11.538;2022-11-20T08:48:00;7.48;67.29
69731;SHT31;56996;48.138;11.538;2022-11-20T08:50:30;7.55;66.94
69731;SHT31;56996;48.138;11.538;2022-11-20T08:53:06;7.61;66.75
69731;SHT31;56996;48.138;11.538;2022-11-20T08:55:33;7.67;66.66
69731;SHT31;56996;48.138;11.538;2022-11-20T08:58:08;7.73;66.58
69731;SHT31;56996;48.138;11.538;2022-11-20T09:00:35;7.73;66.01
69731;SHT31;56996;48.138;11.538;2022-11-20T09:03:02;7.73;66.10
69731;SHT31;56996;48.138;11.538;2022-11-20T09:05:28;7.77;66.18
69731;SHT31;56996;48.138;11.538;2022-11-20T09:07:56;7.81;65.82
69731;SHT31;56996;48.138;11.538;2022-11-20T09:10:24;7.82;65.57
69731;SHT31;56996;48.138;11.538;2022-11-20T09:12:53;7.79;65.36
69731;SHT31;56996;48.138;11.538;2022-11-20T09:15:21;7.81;65.68
69731;SHT31;56996;48.138;11.538;2022-11-20T09:20:37;7.97;65.22
69731;SHT31;56996;48.138;11.538;2022-11-20T09:23:04;8.03;65.26
69731;SHT31;56996;48.138;11.538;2022-11-20T09:25:31;8.14;64.82
69731;SHT31;56996;48.138;11.538;2022-11-20T09:27:58;8.22;64.57
69731;SHT31;56996;48.138;11.538;2022-11-20T09:30:25;8.30;64.19
69731;SHT31;56996;48.138;11.538;2022-11-20T09:32:53;8.35;63.77
69731;SHT31;56996;48.138;11.538;2022-11-20T09:35:20;8.41;63.23
69731;SHT31;56996;48.138;11.538;2022-11-20T09:37:47;8.46;63.04
69731;SHT31;56996;48.138;11.538;2022-11-20T09:40:21;8.48;62.83
69731;SHT31;56996;48.138;11.538;2022-11-20T09:42:55;8.50;62.59
69731;SHT31;56996;48.138;11.538;2022-11-20T09:46:18;8.46;62.34
69731;SHT31;56996;48.138;11.538;2022-11-20T09:51:43;8.48;62.64
69731;SHT31;56996;48.138;11.538;2022-11-20T09:54:17;8.57;62.54
69731;SHT31;56996;48.138;11.538;2022-11-20T09:56:48;8.61;61.88
69731;SHT31;56996;48.138;11.538;2022-11-20T10:02:23;8.94;61.47
69731;SHT31;56996;48.138;11.538;2022-11-20T10:05:18;9.58;60.15
69731;SHT31;56996;48.138;11.538;2022-11-20T10:08:09;9.71;59.39
69731;SHT31;56996;48.138;11.538;2022-11-20T10:10:44;9.99;59.16
69731;SHT31;56996;48.138;11.538;2022-11-20T10:25:20;12.06;53.53
69731;SHT31;56996;48.138;11.538;2022-11-20T10:30:48;11.85;52.80
69731;SHT31;56996;48.138;11.538;2022-11-20T10:33:41;11.62;53.44
69731;SHT31;56996;48.138;11.538;2022-11-20T10:36:36;11.52;54.11
69731;SHT31;56996;48.138;11.538;2022-11-20T10:42:13;11.12;53.79
69731;SHT31;56996;48.138;11.538;2022-11-20T10:44:53;10.87;54.03
69731;SHT31;56996;48.138;11.538;2022-11-20T10:47:32;10.68;54.95
69731;SHT31;56996;48.138;11.538;2022-11-20T10:50:04;10.67;55.13
69731;SHT31;56996;48.138;11.538;2022-11-20T10:56:05;10.61;55.32
69731;SHT31;56996;48.138;11.538;2022-11-20T10:59:00;10.61;55.38
69731;SHT31;56996;48.138;11.538;2022-11-20T11:01:47;10.59;55.46
69731;SHT31;56996;48.138;11.538;2022-11-20T11:07:05;10.47;55.14
69731;SHT31;56996;48.138;11.538;2022-11-20T11:10:05;10.44;55.04
69731;SHT31;56996;48.138;11.538;2022-11-20T11:12:45;10.32;55.26
69731;SHT31;56996;48.138;11.538;2022-11-20T11:15:23;10.22;55.80
69731;SHT31;56996;48.138;11.538;2022-11-20T11:18:10;10.13;56.00
69731;SHT31;56996;48.138;11.538;2022-11-20T11:20:37;10.14;56.18
69731;SHT31;56996;48.138;11.538;2022-11-20T11:23:04;10.13;56.05
69731;SHT31;56996;48.138;11.538;2022-11-20T11:25:56;10.06;55.99
69731;SHT31;56996;48.138;11.538;2022-11-20T11:28:25;10.02;56.12
69731;SHT31;56996;48.138;11.538;2022-11-20T11:30:54;9.98;56.33
69731;SHT31;56996;48.138;11.538;2022-11-20T11:33:23;9.98;56.41
69731;SHT31;56996;48.138;11.538;2022-11-20T11:35:53;10.00;56.58
69731;SHT31;56996;48.138;11.538;2022-11-20T11:38:38;10.09;56.58
69731;SHT31;56996;48.138;11.538;2022-11-20T11:41:12;10.15;56.00
69731;SHT31;56996;48.138;11.538;2022-11-20T11:47:42;10.10;55.85
69731;SHT31;56996;48.138;11.538;2022-11-20T11:52:46;10.06;56.08
69731;SHT31;56996;48.138;11.538;2022-11-20T11:55:47;10.06;56.19
69731;SHT31;56996;48.138;11.538;2022-11-20T12:01:21;10.10;55.75
69731;SHT31;56996;48.138;11.538;2022-11-20T12:04:07;10.07;55.69
69731;SHT31;56996;48.138;11.538;2022-11-20T12:06:43;9.95;55.37
69731;SHT31;56996;48.138;11.538;2022-11-20T12:09:16;9.82;56.01
69731;SHT31;56996;48.138;11.538;2022-11-20T12:11:49;9.74;57.40
69731;SHT31;56996;48.138;11.538;2022-11-20T12:14:27;9.69;59.20
69731;SHT31;56996;48.138;11.538;2022-11-20T12:17:01;9.63;60.15
69731;SHT31;56996;48.138;11.538;2022-11-20T12:19:29;9.54;60.62
69731;SHT31;56996;48.138;11.538;2022-11-20T12:25:16;9.39;60.75
69731;SHT31;56996;48.138;11.538;2022-11-20T12:30:29;9.21;60.74
69731;SHT31;56996;48.138;11.538;2022-11-20T12:35:55;9.04;61.16
69731;SHT31;56996;48.138;11.538;2022-11-20T12:41:45;8.87;61.95
69731;SHT31;56996;48.138;11.538;2022-11-20T12:44:52;8.83;62.38
69731;SHT31;56996;48.138;11.538;2022-11-20T12:56:35;8.87;63.02
69731;SHT31;56996;48.138;11.538;2022-11-20T13:07:47;8.72;63.45
69731;SHT31;56996;48.138;11.538;2022-11-20T13:10:20;8.72;63.54
69731;SHT31;56996;48.138;11.538;2022-11-20T13:16:19;8.63;63.59
69731;SHT31;56996;48.138;11.538;2022-11-20T13:19:13;8.60;63.79
69731;SHT31;56996;48.138;11.538;2022-11-20T13:21:44;8.56;63.98
69731;SHT31;56996;48.138;11.538;2022-11-20T13:24:20;8.55;64.33
69731;SHT31;56996;48.138;11.538;2022-11-20T13:29:35;8.53;64.91
69731;SHT31;56996;48.138;11.538;2022-11-20T13:32:12;8.49;64.92
69731;SHT31;56996;48.138;11.538;2022-11-20T13:34:51;8.41;65.40
69731;SHT31;56996;48.138;11.538;2022-11-20T13:37:31;8.40;65.56
69731;SHT31;56996;48.138;11.538;2022-11-20T13:45:24;8.43;65.96
69731;SHT31;56996;48.138;11.538;2022-11-20T13:47:54;8.47;65.92
69731;SHT31;56996;48.138;11.538;2022-11-20T13:56:17;8.43;66.17
69731;SHT31;56996;48.138;11.538;2022-11-20T14:01:59;8.48;66.29
69731;SHT31;56996;48.138;11.538;2022-11-20T14:04:32;8.52;66.11
69731;SHT31;56996;48.138;11.538;2022-11-20T14:07:02;8.52;66.06
69731;SHT31;56996;48.138;11.538;2022-11-20T14:09:32;8.50;66.02
69731;SHT31;56996;48.138;11.538;2022-11-20T14:12:01;8.47;66.03
69731;SHT31;56996;48.138;11.538;2022-11-20T14:14:30;8.49;65.95
69731;SHT31;56996;48.138;11.538;2022-11-20T14:17:06;8.52;65.80
69731;SHT31;56996;48.138;11.538;2022-11-20T14:19:34;8.54;65.65
69731;SHT31;56996;48.138;11.538;2022-11-20T14:22:22;8.53;65.23
69731;SHT31;56996;48.138;11.538;2022-11-20T14:25:03;8.52;65.23
69731;SHT31;56996;48.138;11.538;2022-11-20T14:27:39;8.51;65.13
69731;SHT31;56996;48.138;11.538;2022-11-20T14:30:15;8.53;65.02
69731;SHT31;56996;48.138;11.538;2022-11-20T14:32:46;8.52;64.81
69731;SHT31;56996;48.138;11.538;2022-11-20T14:35:29;8.48;64.82
69731;SHT31;56996;48.138;11.538;2022-11-20T14:38:00;8.46;64.88
69731;SHT31;56996;48.138;11.538;2022-11-20T14:40:32;8.41;64.88
69731;SHT31;56996;48.138;11.538;2022-11-20T14:43:14;8.41;64.84
69731;SHT31;56996;48.138;11.538;2022-11-20T14:46:03;8.44;64.83
69731;SHT31;56996;48.138;11.538;2022-11-20T14:48:35;8.46;64.73
69731;SHT31;56996;48.138;11.538;2022-11-20T14:54:08;8.38;64.70
69731;SHT31;56996;48.138;11.538;2022-11-20T14:56:36;8.35;64.54
69731;SHT31;56996;48.138;11.538;2022-11-20T14:59:03;8.35;64.52
69731;SHT31;56996;48.138;11.538;2022-11-20T15:01:31;8.32;64.22
69731;SHT31;56996;48.138;11.538;2022-11-20T15:04:20;8.25;64.29
69731;SHT31;56996;48.138;11.538;2022-11-20T15:06:50;8.23;64.29
69731;SHT31;56996;48.138;11.538;2022-11-20T15:09:21;8.23;64.20
69731;SHT31;56996;48.138;11.538;2022-11-20T15:11:55;8.15;64.01
69731;SHT31;56996;48.138;11.538;2022-11-20T15:14:27;8.09;64.22
69731;SHT31;56996;48.138;11.538;2022-11-20T15:16:56;8.07;64.36
69731;SHT31;56996;48.138;11.538;2022-11-20T15:19:24;8.06;64.49
69731;SHT31;56996;48.138;11.538;2022-11-20T15:21:52;8.05;64.55
69731;SHT31;56996;48.138;11.538;2022-11-20T15:24:19;8.03;64.60
69731;SHT31;56996;48.138;11.538;2022-11-20T15:26:47;8.04;64.60
69731;SHT31;56996;48.138;11.538;2022-11-20T15:29:15;8.02;64.56
69731;SHT31;56996;48.138;11.538;2022-11-20T15:31:47;7.99;64.80
69731;SHT31;56996;48.138;11.538;2022-11-20T15:34:14;7.92;65.08
69731;SHT31;56996;48.138;11.538;2022-11-20T15:36:42;7.91;65.10
69731;SHT31;56996;48.138;11.538;2022-11-20T15:39:10;7.89;65.14
69731;SHT31;56996;48.138;11.538;2022-11-20T15:41:37;7.88;65.23
69731;SHT31;56996;48.138;11.538;2022-11-20T15:44:05;7.86;65.39
69731;SHT31;56996;48.138;11.538;2022-11-20T15:46:32;7.83;65.41
69731;SHT31;56996;48.138;11.538;2022-11-20T15:49:14;7.79;65.52
69731;SHT31;56996;48.138;11.538;2022-11-20T15:51:46;7.71;65.74
69731;SHT31;56996;48.138;11.538;2022-11-20T15:54:16;7.62;65.86
69731;SHT31;56996;48.138;11.538;2022-11-20T15:56:49;7.53;66.15
69731;SHT31;56996;48.138;11.538;2022-11-20T15:59:19;7.48;66.29
69731;SHT31;56996;48.138;11.538;2022-11-20T16:01:46;7.46;66.42
69731;SHT31;56996;48.138;11.538;2022-11-20T16:04:14;7.41;66.53
69731;SHT31;56996;48.138;11.538;2022-11-20T16:06:43;7.40;66.68
69731;SHT31;56996;48.138;11.538;2022-11-20T16:09:09;7.34;66.87
69731;SHT31;56996;48.138;11.538;2022-11-20T16:11:36;7.29;67.00
69731;SHT31;56996;48.138;11.538;2022-11-20T16:14:04;7.25;67.31
69731;SHT31;56996;48.138;11.538;2022-11-20T16:16:51;7.17;67.47
69731;SHT31;56996;48.138;11.538;2022-11-20T16:19:17;7.15;67.59
69731;SHT31;56996;48.138;11.538;2022-11-20T16:21:44;7.13;67.79
69731;SHT31;56996;48.138;11.538;2022-11-20T16:24:12;7.07;67.93
69731;SHT31;56996;48.138;11.538;2022-11-20T16:26:40;7.07;67.93
69731;SHT31;56996;48.138;11.538;2022-11-20T16:29:07;7.06;68.01
69731;SHT31;56996;48.138;11.538;2022-11-20T16:31:34;7.01;68.15
69731;SHT31;56996;48.138;11.538;2022-11-20T16:34:03;6.98;68.31
69731;SHT31;56996;48.138;11.538;2022-11-20T16:36:40;6.95;68.46
69731;SHT31;56996;48.138;11.538;2022-11-20T16:39:11;6.91;68.62
69731;SHT31;56996;48.138;11.538;2022-11-20T16:41:44;6.88;68.74
69731;SHT31;56996;48.138;11.538;2022-11-20T16:44:11;6.85;68.87
69731;SHT31;56996;48.138;11.538;2022-11-20T16:46:37;6.82;68.99
69731;SHT31;56996;48.138;11.538;2022-11-20T16:49:08;6.81;69.04
69731;SHT31;56996;48.138;11.538;2022-11-20T16:51:38;6.79;69.14
69731;SHT31;56996;48.138;11.538;2022-11-20T16:54:06;6.74;69.16
69731;SHT31;56996;48.138;11.538;2022-11-20T16:56:35;6.71;69.26
69731;SHT31;56996;48.138;11.538;2022-11-20T16:59:02;6.67;69.34
69731;SHT31;56996;48.138;11.538;2022-11-20T17:01:29;6.62;69.49
69731;SHT31;56996;48.138;11.538;2022-11-20T17:04:00;6.59;69.57
69731;SHT31;56996;48.138;11.538;2022-11-20T17:06:31;6.57;69.57
69731;SHT31;56996;48.138;11.538;2022-11-20T17:09:01;6.56;69.57
69731;SHT31;56996;48.138;11.538;2022-11-20T17:11:29;6.54;69.68
69731;SHT31;56996;48.138;11.538;2022-11-20T17:13:56;6.54;69.79
69731;SHT31;56996;48.138;11.538;2022-11-20T17:16:29;6.54;69.80
69731;SHT31;56996;48.138;11.538;2022-11-20T17:18:57;6.52;69.81
69731;SHT31;56996;48.138;11.538;2022-11-20T17:21:29;6.51;69.87
69731;SHT31;56996;48.138;11.538;2022-11-20T17:24:09;6.48;69.89
69731;SHT31;56996;48.138;11.538;2022-11-20T17:26:39;6.44;69.92
69731;SHT31;56996;48.138;11.538;2022-11-20T17:29:15;6.42;69.96
69731;SHT31;56996;48.138;11.538;2022-11-20T17:31:44;6.37;70.06
69731;SHT31;56996;48.138;11.538;2022-11-20T17:34:12;6.36;70.16
69731;SHT31;56996;48.138;11.538;2022-11-20T17:36:40;6.34;70.13